This is the latest recevied weather packets stored in our database for station/object 9W4GWK-G. If no packets are shown the sender has not sent any weather packets the latest 1 day(s).
| Time | Temp. | Humidity | Pressure | Rain* | Wind** | Luminosity | Snow |
|---|---|---|---|---|---|---|---|
| 1777913176 | 30.56° C | 60% | 1011.4 hPa | - | - | - | - |
| 1777912274 | 30.56° C | 59% | 1011.4 hPa | - | - | - | - |
| 1777911372 | 30° C | 58% | 1011.6 hPa | - | - | - | - |
| 1777910470 | 29.44° C | 56% | 1011.7 hPa | - | - | - | - |
| 1777909568 | 28.89° C | 56% | 1011.5 hPa | - | - | - | - |
| 1777908666 | 28.33° C | 51% | 1011.4 hPa | - | - | - | - |
| 1777907764 | 28.33° C | 42% | 1011.3 hPa | - | - | - | - |
| 1777906862 | 28.33° C | 41% | 1011 hPa | - | - | - | - |
| 1777905960 | 28.89° C | 41% | 1011 hPa | - | - | - | - |
| 1777905058 | 29.44° C | 42% | 1010.9 hPa | - | - | - | - |
| 1777904156 | 30.56° C | 44% | 1010.5 hPa | - | - | - | - |
| 1777903255 | 31.67° C | 54% | 1010.5 hPa | - | - | - | - |
| 1777902353 | 32.22° C | 65% | 1010.7 hPa | - | - | - | - |
| 1777901451 | 32.78° C | 65% | 1010.6 hPa | - | - | - | - |
| 1777900549 | 32.78° C | 65% | 1010.5 hPa | - | - | - | - |
| 1777899647 | 32.78° C | 65% | 1010.4 hPa | - | - | - | - |
| 1777898745 | 32.78° C | 65% | 1010.3 hPa | - | - | - | - |
| 1777897842 | 32.22° C | 65% | 1010 hPa | - | - | - | - |
| 1777896940 | 32.22° C | 65% | 1009.9 hPa | - | - | - | - |
| 1777896038 | 32.78° C | 65% | 1009.7 hPa | - | - | - | - |
| 1777895136 | 32.22° C | 65% | 1009.7 hPa | - | - | - | - |
| 1777894234 | 32.78° C | 65% | 1009.4 hPa | - | - | - | - |
| 1777893332 | 32.78° C | 65% | 1008.9 hPa | - | - | - | - |
| 1777892430 | 32.78° C | 65% | 1009 hPa | - | - | - | - |
| 1777891528 | 32.78° C | 65% | 1008.6 hPa | - | - | - | - |
* Rain since midnight (hover to see other rain measurements)
** Current wind speed in m/s (hover to see current wind gust speed)